Time;durP1;ratioP1;P1;durP2;ratioP2;P2;SDS_P1;SDS_P2;PMS_P1;PMS_P2;Temp;Humidity;BMP_temperature;BMP_pressure;BME280_temperature;BME280_humidity;BME280_pressure;Samples;Min_cycle;Max_cycle;Signal;HPM_P1;HPM_P2
2021/06/17 00:01:44;;;;;;;6.32;4.63;;;;;;;24.05;50.82;100903.97;5053921;28;20725;-57
2021/06/17 00:04:09;;;;;;;6.43;4.87;;;;;;;24.05;50.75;100898.63;5053699;28;20025;-57
2021/06/17 00:06:35;;;;;;;7.38;5.05;;;;;;;24.04;50.67;100913.78;5053509;28;20741;-57
2021/06/17 00:09:00;;;;;;;6.60;5.20;;;;;;;24.05;50.73;100912.81;5054091;28;20016;-57
2021/06/17 00:11:25;;;;;;;6.07;5.03;;;;;;;24.04;50.75;100916.44;5053569;28;20033;-57
2021/06/17 00:13:54;;;;;;;6.45;5.13;;;;;;;24.04;50.59;100912.97;5053317;28;20083;-56
2021/06/17 00:16:22;;;;;;;7.40;4.93;;;;;;;24.04;50.77;100915.63;5053243;28;20658;-58
2021/06/17 00:18:48;;;;;;;8.27;5.07;;;;;;;24.04;50.82;100915.63;5053704;28;20111;-57
2021/06/17 00:21:14;;;;;;;6.47;4.80;;;;;;;24.02;50.50;100920.25;5052846;28;20027;-56
2021/06/17 00:23:39;;;;;;;6.78;5.32;;;;;;;24.02;50.75;100913.13;5053863;28;20384;-58
2021/06/17 00:26:04;;;;;;;6.60;4.75;;;;;;;24.02;50.92;100910.47;5053395;28;20041;-56
2021/06/17 00:28:30;;;;;;;6.00;4.90;;;;;;;24.03;51.01;100900.63;5052855;28;20037;-57
2021/06/17 00:30:59;;;;;;;6.40;5.35;;;;;;;24.03;50.68;100897.97;5053456;28;20040;-58
2021/06/17 00:33:25;;;;;;;7.82;5.03;;;;;;;24.02;50.90;100893.63;5052978;28;20079;-57
2021/06/17 00:35:50;;;;;;;6.22;5.03;;;;;;;24.00;50.76;100888.47;5052481;28;20033;-56
2021/06/17 00:38:16;;;;;;;5.72;4.97;;;;;;;24.02;50.96;100885.66;5053167;28;20029;-57
2021/06/17 00:40:42;;;;;;;6.80;4.72;;;;;;;24.01;50.57;100886.66;5053521;28;20025;-57
2021/06/17 00:43:08;;;;;;;7.13;4.65;;;;;;;24.02;50.81;100890.97;5052713;28;20036;-57
2021/06/17 00:45:38;;;;;;;6.47;4.72;;;;;;;24.00;50.98;100875.16;5053188;28;20025;-58
2021/06/17 00:48:04;;;;;;;6.82;4.90;;;;;;;24.00;51.11;100869.03;5052070;28;20737;-57
2021/06/17 00:50:41;;;;;;;6.65;5.07;;;;;;;24.00;50.71;100872.50;5053165;28;20036;-58
2021/06/17 00:53:11;;;;;;;7.05;4.90;;;;;;;24.01;50.70;100882.16;5052817;28;20025;-58
2021/06/17 00:55:42;;;;;;;6.35;5.30;;;;;;;24.01;50.71;100881.34;5052397;28;20033;-57
2021/06/17 00:58:07;;;;;;;7.15;5.25;;;;;;;24.00;50.70;100883.16;5052584;28;20025;-57
2021/06/17 01:00:33;;;;;;;6.05;5.00;;;;;;;23.99;50.87;100886.84;5052897;28;20021;-56
2021/06/17 01:03:00;;;;;;;6.85;5.43;;;;;;;23.99;50.74;100886.84;5051233;28;20028;-58
2021/06/17 01:05:25;;;;;;;6.53;5.38;;;;;;;23.98;50.61;100885.16;5052806;28;20025;-57
2021/06/17 01:07:57;;;;;;;6.53;4.88;;;;;;;23.99;50.74;100886.84;5034747;28;20025;-58
2021/06/17 01:10:37;;;;;;;6.57;5.30;;;;;;;23.99;50.52;100875.34;5051688;28;20368;-57
2021/06/17 01:13:14;;;;;;;8.15;5.05;;;;;;;23.99;50.72;100878.84;5052315;28;20063;-57
2021/06/17 01:15:49;;;;;;;6.38;5.07;;;;;;;23.98;50.45;100884.34;5052580;28;20032;-57
2021/06/17 01:18:16;;;;;;;7.47;5.32;;;;;;;23.98;50.58;100879.84;5051595;28;20028;-57
2021/06/17 01:21:02;;;;;;;6.97;5.00;;;;;;;23.97;50.66;100885.31;5052539;28;20017;-57
2021/06/17 01:23:49;;;;;;;6.53;4.97;;;;;;;23.98;50.67;100892.31;5051879;28;20043;-57
2021/06/17 01:26:52;;;;;;;6.28;5.30;;;;;;;23.97;50.50;100899.44;5052405;28;20033;-57
2021/06/17 01:29:23;;;;;;;7.65;5.47;;;;;;;23.96;50.53;100892.47;5052102;28;20044;-56
2021/06/17 01:31:49;;;;;;;6.13;5.03;;;;;;;23.96;50.57;100888.97;5051602;28;20147;-58
2021/06/17 01:34:20;;;;;;;5.97;4.93;;;;;;;23.97;50.73;100890.63;5052201;28;20078;-58
2021/06/17 01:36:49;;;;;;;6.90;5.30;;;;;;;23.93;50.58;100884.81;5052443;28;20036;-57
2021/06/17 01:39:18;;;;;;;7.28;4.85;;;;;;;23.95;50.88;100890.81;5051363;28;20039;-56
2021/06/17 01:41:47;;;;;;;6.55;5.32;;;;;;;23.96;50.50;100894.28;5052316;28;20390;-57
2021/06/17 01:44:13;;;;;;;5.97;4.80;;;;;;;23.95;50.57;100885.47;5051034;28;20590;-57
2021/06/17 01:46:40;;;;;;;6.18;5.25;;;;;;;23.95;50.54;100882.81;5052045;28;20423;-57
2021/06/17 01:49:09;;;;;;;7.40;5.60;;;;;;;23.95;50.51;100880.16;5052057;28;20033;-57
2021/06/17 01:51:36;;;;;;;6.70;5.30;;;;;;;23.93;50.69;100884.81;5051527;28;20056;-58
2021/06/17 01:54:03;;;;;;;6.30;5.32;;;;;;;23.93;50.56;100879.50;5051727;28;20025;-57
2021/06/17 01:56:29;;;;;;;6.78;5.10;;;;;;;23.93;50.82;100879.50;5051836;28;20108;-58
2021/06/17 01:58:59;;;;;;;7.25;5.47;;;;;;;23.94;50.51;100877.66;5051212;28;20048;-57
2021/06/17 02:01:30;;;;;;;8.20;4.70;;;;;;;23.93;50.88;100876.00;5051849;28;20107;-58
2021/06/17 02:03:57;;;;;;;6.10;4.90;;;;;;;23.92;50.49;100880.47;5051943;28;20042;-57
2021/06/17 02:06:27;;;;;;;6.70;5.10;;;;;;;23.92;50.83;100880.47;5050795;28;20025;-58
2021/06/17 02:08:54;;;;;;;6.75;4.93;;;;;;;23.91;50.53;100870.84;5051677;28;20036;-57
2021/06/17 02:11:25;;;;;;;6.20;4.70;;;;;;;23.92;50.51;100867.16;5051537;28;20049;-57
2021/06/17 02:13:53;;;;;;;6.93;5.00;;;;;;;23.92;50.70;100874.34;5049781;28;20504;-57
2021/06/17 02:16:20;;;;;;;7.53;5.20;;;;;;;23.92;50.64;100877.00;5051116;28;20045;-58
2021/06/17 02:18:47;;;;;;;6.13;5.30;;;;;;;23.91;50.56;100873.50;5051703;28;20048;-57
2021/06/17 02:21:14;;;;;;;7.20;5.15;;;;;;;23.90;50.61;100866.50;5050337;28;20037;-57
2021/06/17 02:23:43;;;;;;;7.00;5.45;;;;;;;23.92;50.77;100858.38;5051324;28;20094;-56
2021/06/17 02:26:10;;;;;;;5.97;5.07;;;;;;;23.92;50.37;100859.19;5050917;28;20536;-56
2021/06/17 02:28:40;;;;;;;7.60;5.07;;;;;;;23.89;50.52;100848.88;5051062;28;20031;-57
2021/06/17 02:31:09;;;;;;;6.15;5.13;;;;;;;23.90;50.71;100850.53;5051264;28;20025;-58
2021/06/17 02:33:36;;;;;;;7.38;5.18;;;;;;;23.88;50.61;100853.38;5050870;28;20446;-58
2021/06/17 02:36:08;;;;;;;6.65;4.80;;;;;;;23.87;50.62;100851.69;5051029;28;20036;-58
2021/06/17 02:38:38;;;;;;;6.22;5.20;;;;;;;23.89;50.86;100852.38;5050478;28;20439;-57
2021/06/17 02:41:06;;;;;;;6.20;5.13;;;;;;;23.89;50.87;100841.72;5050437;28;20439;-58
2021/06/17 02:43:40;;;;;;;5.93;4.90;;;;;;;23.89;50.64;100841.72;5051323;28;20427;-58
2021/06/17 02:46:09;;;;;;;;;;;;;;;23.88;50.61;100842.72;5051586;28;20029;-57
2021/06/17 02:48:34;;;;;;;7.93;5.25;;;;;;;23.89;50.55;100838.22;5050581;28;19913;-57
2021/06/17 02:51:01;;;;;;;8.10;5.43;;;;;;;23.87;50.49;100830.41;5051177;28;20430;-57
2021/06/17 02:53:26;;;;;;;7.13;5.15;;;;;;;23.87;50.52;100834.91;5050956;28;20495;-57
2021/06/17 02:55:52;;;;;;;6.43;4.85;;;;;;;23.86;50.94;100827.91;5050552;28;20032;-57
2021/06/17 02:58:45;;;;;;;6.95;5.20;;;;;;;23.86;50.46;100826.09;5051049;28;20104;-56
2021/06/17 03:01:21;;;;;;;6.10;5.10;;;;;;;23.86;50.73;100831.41;5051089;28;20036;-56
2021/06/17 03:03:52;;;;;;;7.07;5.40;;;;;;;23.86;50.73;100828.75;5050803;28;20032;-57
2021/06/17 03:06:33;;;;;;;6.75;5.00;;;;;;;23.86;50.65;100831.41;5051045;28;20029;-57
2021/06/17 03:09:08;;;;;;;7.55;5.03;;;;;;;23.85;50.54;100831.56;5050090;28;20403;-56
2021/06/17 03:11:35;;;;;;;7.00;5.00;;;;;;;23.86;50.54;100830.56;5051190;28;20025;-57
2021/06/17 03:14:13;;;;;;;6.22;5.13;;;;;;;23.86;50.61;100833.22;5051025;28;20029;-57
2021/06/17 03:16:40;;;;;;;6.30;5.15;;;;;;;23.85;50.43;100826.25;5050225;28;20040;-58
2021/06/17 03:19:08;;;;;;;6.80;5.45;;;;;;;23.84;50.71;100837.88;5050900;28;20017;-56
2021/06/17 03:21:43;;;;;;;6.25;4.93;;;;;;;23.84;50.81;100841.38;5051048;28;20021;-58
2021/06/17 03:24:10;;;;;;;7.03;5.03;;;;;;;23.85;50.44;100836.91;5049970;28;20025;-56
2021/06/17 03:26:38;;;;;;;6.60;4.97;;;;;;;23.85;50.50;100835.06;5053715;28;20056;-57
2021/06/17 03:29:04;;;;;;;6.40;4.80;;;;;;;23.85;50.54;100828.91;5054584;28;20025;-57
2021/06/17 03:31:32;;;;;;;7.65;5.18;;;;;;;23.84;50.30;100828.06;5053891;28;20079;-57
2021/06/17 03:33:57;;;;;;;6.25;4.93;;;;;;;23.84;50.90;100825.41;5054554;28;20040;-59
2021/06/17 03:36:24;;;;;;;7.97;5.03;;;;;;;23.83;50.43;100829.06;5054107;28;20025;-57
2021/06/17 03:38:51;;;;;;;6.63;5.22;;;;;;;23.84;50.77;100830.72;5053737;28;20025;-58
2021/06/17 03:41:18;;;;;;;6.45;4.82;;;;;;;23.83;50.69;100821.09;5053953;28;20443;-57
2021/06/17 03:43:46;;;;;;;6.15;5.00;;;;;;;23.84;50.70;100824.56;5053737;28;20108;-57
2021/06/17 03:46:13;;;;;;;6.15;5.00;;;;;;;23.83;50.39;100829.06;5054067;28;20099;-57
2021/06/17 03:48:41;;;;;;;6.80;5.38;;;;;;;23.85;50.54;100831.56;5054169;28;20158;-57
2021/06/17 03:51:13;;;;;;;6.93;5.28;;;;;;;23.83;50.44;100829.06;5053229;28;20104;-58
2021/06/17 03:53:39;;;;;;;6.03;5.07;;;;;;;23.83;50.64;100829.06;5054374;28;20101;-58
2021/06/17 03:56:06;;;;;;;5.93;5.10;;;;;;;23.84;50.75;100833.38;5054049;28;20121;-58
2021/06/17 03:58:32;;;;;;;7.25;5.13;;;;;;;23.84;50.82;100827.22;5053329;28;20025;-57
2021/06/17 04:00:58;;;;;;;7.35;5.05;;;;;;;23.83;50.81;100831.75;5054166;28;20097;-57
2021/06/17 04:03:28;;;;;;;7.68;4.90;;;;;;;23.82;50.75;100830.03;5053764;28;20021;-56
2021/06/17 04:05:57;;;;;;;6.45;5.53;;;;;;;23.82;50.61;100827.38;5053212;28;20025;-57
2021/06/17 04:08:27;;;;;;;6.00;5.00;;;;;;;23.83;50.76;100839.72;5053554;28;20461;-56
2021/06/17 04:10:57;;;;;;;5.93;5.10;;;;;;;23.83;50.89;100837.06;5053880;28;20033;-57
2021/06/17 04:13:25;;;;;;;5.72;5.13;;;;;;;23.84;50.86;100840.53;5052894;28;20369;-57
2021/06/17 04:15:54;;;;;;;5.68;4.70;;;;;;;23.83;50.71;100830.84;5053594;28;20044;-56
2021/06/17 04:18:25;;;;;;;6.20;5.03;;;;;;;23.83;50.89;100829.06;5053444;28;20134;-57
2021/06/17 04:20:54;;;;;;;6.55;4.88;;;;;;;23.82;50.70;100831.88;5053109;28;20036;-57
2021/06/17 04:23:23;;;;;;;7.47;5.13;;;;;;;23.80;50.97;100832.03;5053283;28;20100;-57
2021/06/17 04:25:53;;;;;;;6.45;5.05;;;;;;;23.83;50.64;100836.16;5053028;28;20059;-57
2021/06/17 04:28:20;;;;;;;5.78;4.72;;;;;;;23.82;51.20;100834.53;5053234;28;20025;-58
2021/06/17 04:30:46;;;;;;;5.97;4.80;;;;;;;23.82;50.71;100835.34;5053311;28;20392;-57
2021/06/17 04:33:16;;;;;;;7.82;5.15;;;;;;;23.82;50.69;100840.66;5052565;28;20025;-57
2021/06/17 04:35:46;;;;;;;7.43;5.25;;;;;;;23.82;50.87;100832.69;5053429;28;20090;-57
2021/06/17 04:38:17;;;;;;;6.20;5.30;;;;;;;23.80;50.90;100834.69;5052921;28;20068;-58
2021/06/17 04:40:45;;;;;;;6.32;5.18;;;;;;;23.82;50.79;100831.88;5052538;28;20350;-58
2021/06/17 04:43:11;;;;;;;5.72;4.68;;;;;;;23.81;50.96;100835.50;5053006;28;20123;-57
2021/06/17 04:45:37;;;;;;;6.97;5.47;;;;;;;23.82;50.84;100840.66;5052954;28;20519;-58
2021/06/17 04:48:08;;;;;;;6.55;5.07;;;;;;;23.81;50.65;100839.00;5052223;28;20033;-58
2021/06/17 04:50:34;;;;;;;6.38;4.80;;;;;;;23.81;51.04;100828.34;5052950;28;20028;-56
2021/06/17 04:53:08;;;;;;;7.57;4.80;;;;;;;23.82;50.84;100839.84;5053014;28;20040;-56
2021/06/17 04:55:39;;;;;;;7.75;5.32;;;;;;;23.83;51.04;100833.50;5052224;28;20029;-57
2021/06/17 04:58:04;;;;;;;7.03;5.53;;;;;;;23.82;50.77;100837.19;5052413;28;20029;-57
2021/06/17 05:00:30;;;;;;;6.63;4.63;;;;;;;23.82;50.87;100840.66;5052976;28;20025;-57
2021/06/17 05:02:55;;;;;;;6.40;4.97;;;;;;;23.83;51.22;100838.84;5052148;28;20738;-57
2021/06/17 05:05:20;;;;;;;6.00;5.20;;;;;;;23.82;51.19;100838.00;5052682;28;20847;-57
2021/06/17 05:13:03;;;;;;;7.15;5.28;;;;;;;23.82;51.01;100831.88;5052488;28;20039;-58
2021/06/17 05:15:31;;;;;;;6.18;4.85;;;;;;;23.82;51.22;100838.00;5052038;28;20036;-58
2021/06/17 05:17:57;;;;;;;6.38;5.20;;;;;;;23.81;51.28;100846.16;5052598;28;20029;-58
2021/06/17 05:20:26;;;;;;;6.47;4.80;;;;;;;23.83;51.19;100846.81;5052276;28;20025;-57
2021/06/17 05:22:52;;;;;;;7.32;5.00;;;;;;;23.83;51.02;100841.50;5051671;28;20275;-57
2021/06/17 05:25:17;;;;;;;7.22;5.20;;;;;;;23.83;50.96;100847.69;5051978;28;20066;-57
2021/06/17 05:27:42;;;;;;;7.57;5.18;;;;;;;23.85;51.13;100852.88;5052406;28;20174;-57
2021/06/17 05:30:08;;;;;;;8.50;5.22;;;;;;;23.86;51.47;100846.53;5051367;28;20112;-57
2021/06/17 05:32:34;;;;;;;6.00;5.00;;;;;;;23.85;51.92;100843.03;5052795;28;20037;-56
2021/06/17 05:34:59;;;;;;;7.40;5.65;;;;;;;23.85;52.17;100851.03;5052150;28;20025;-57
2021/06/17 05:37:24;;;;;;;6.95;5.05;;;;;;;23.85;52.63;100853.69;5051087;28;20039;-57
2021/06/17 05:39:50;;;;;;;7.50;5.43;;;;;;;23.85;52.56;100843.03;5052129;28;20025;-57
2021/06/17 05:42:15;;;;;;;6.93;5.72;;;;;;;23.86;52.22;100851.84;5051782;28;20484;-56
2021/06/17 05:44:41;;;;;;;8.80;5.75;;;;;;;23.88;52.25;100856.03;5051408;28;20417;-56
2021/06/17 05:47:06;;;;;;;7.18;5.40;;;;;;;23.88;52.43;100856.03;5051603;28;20048;-57
2021/06/17 05:49:31;;;;;;;7.55;5.60;;;;;;;23.90;52.45;100861.19;5051253;28;20021;-56
2021/06/17 05:51:59;;;;;;;6.53;5.45;;;;;;;23.91;52.31;100852.22;5051187;28;20124;-57
2021/06/17 05:54:24;;;;;;;7.75;4.93;;;;;;;23.93;52.05;100865.38;5051816;28;20116;-57
2021/06/17 05:56:50;;;;;;;9.70;5.53;;;;;;;23.94;52.06;100870.53;5051976;28;20116;-57
2021/06/17 05:59:17;;;;;;;8.73;5.40;;;;;;;23.96;52.22;100863.19;5050853;28;20749;-58
2021/06/17 06:01:43;;;;;;;8.07;5.20;;;;;;;23.98;52.23;100858.53;5051925;28;20025;-56
2021/06/17 06:04:08;;;;;;;6.97;4.97;;;;;;;23.99;52.36;100854.03;5051543;28;20392;-57
2021/06/17 06:06:34;;;;;;;6.80;5.30;;;;;;;24.02;52.46;100856.38;5050828;28;20457;-56
2021/06/17 06:08:59;;;;;;;6.47;5.00;;;;;;;24.03;52.35;100850.06;5051584;28;20278;-56
2021/06/17 06:11:24;;;;;;;6.03;4.90;;;;;;;24.02;52.68;100857.22;5050695;28;20021;-57
2021/06/17 06:13:50;;;;;;;5.60;4.90;;;;;;;24.04;52.83;100868.53;5051459;28;20056;-57
2021/06/17 06:16:15;;;;;;;8.00;4.88;;;;;;;24.04;52.51;100871.19;5050955;28;20298;-57
2021/06/17 06:18:41;;;;;;;6.45;4.57;;;;;;;24.06;52.74;100873.69;5050825;28;20031;-57
2021/06/17 06:21:06;;;;;;;6.65;5.00;;;;;;;24.06;52.70;100869.19;5051164;28;20179;-57
2021/06/17 06:23:32;;;;;;;7.68;4.95;;;;;;;24.07;52.80;100872.72;5051620;28;20398;-58
2021/06/17 06:25:58;;;;;;;7.35;5.35;;;;;;;24.06;52.38;100873.69;5050897;28;20035;-57
2021/06/17 06:28:25;;;;;;;7.30;4.75;;;;;;;24.07;52.69;100872.72;5051254;28;20025;-57
2021/06/17 06:30:51;;;;;;;7.28;5.00;;;;;;;24.08;52.83;100871.69;5051479;28;20139;-58
2021/06/17 06:33:20;;;;;;;6.32;5.00;;;;;;;24.08;52.81;100885.00;5050430;28;20025;-57
2021/06/17 06:35:47;;;;;;;7.93;4.40;;;;;;;24.08;53.33;100893.84;5051405;28;20025;-56
2021/06/17 06:38:12;;;;;;;5.85;4.55;;;;;;;24.06;53.02;100898.47;5051077;28;20017;-56
2021/06/17 06:40:38;;;;;;;8.18;5.00;;;;;;;24.08;53.00;100914.28;5050565;28;20078;-57
2021/06/17 06:43:08;;;;;;;5.95;4.45;;;;;;;24.07;53.42;100915.31;5051035;28;20082;-56
2021/06/17 06:45:33;;;;;;;6.53;4.57;;;;;;;24.09;53.11;100918.63;5051575;28;20029;-60
2021/06/17 06:47:59;;;;;;;5.40;4.15;;;;;;;24.14;53.22;100916.31;5050790;28;20033;-58
2021/06/17 06:50:24;;;;;;;6.82;4.22;;;;;;;24.19;53.73;100907.84;5051025;28;20071;-58
2021/06/17 06:52:50;;;;;;;7.45;4.63;;;;;;;24.22;53.31;100913.66;5051567;28;20017;-61
2021/06/17 06:55:16;;;;;;;5.90;4.50;;;;;;;24.22;53.21;100918.16;5050365;28;20059;-57
2021/06/17 06:57:42;;;;;;;7.32;4.63;;;;;;;24.25;53.42;100923.97;5051210;28;20029;-55
2021/06/17 07:00:10;;;;;;;5.95;4.50;;;;;;;24.24;53.28;100927.66;5051193;28;20456;-56
2021/06/17 07:02:35;;;;;;;8.00;4.32;;;;;;;24.25;52.78;100931.97;5054337;28;20032;-57
2021/06/17 07:05:02;;;;;;;5.07;4.00;;;;;;;24.24;52.51;100933.00;5054918;28;20025;-58
2021/06/17 07:07:27;;;;;;;5.97;4.15;;;;;;;24.26;52.87;100927.50;5055289;28;20025;-55
2021/06/17 07:09:55;;;;;;;7.45;4.28;;;;;;;24.28;52.89;100933.50;5054457;28;20453;-56
2021/06/17 07:12:21;;;;;;;7.55;4.20;;;;;;;24.26;52.61;100925.66;5054542;28;20472;-53
2021/06/17 07:14:46;;;;;;;5.60;3.92;;;;;;;24.29;52.83;100926.31;5054281;28;20105;-58
2021/06/17 07:17:11;;;;;;;6.32;4.47;;;;;;;24.26;52.67;100920.34;5054377;28;20396;-58
2021/06/17 07:19:37;;;;;;;6.90;3.80;;;;;;;24.27;52.49;100919.34;5054709;28;20504;-59
2021/06/17 07:22:05;;;;;;;6.13;3.70;;;;;;;24.29;52.30;100934.31;5053877;28;20074;-58
2021/06/17 07:24:30;;;;;;;5.20;3.50;;;;;;;24.31;51.89;100935.81;5036865;28;20408;-58
2021/06/17 07:26:56;;;;;;;7.57;3.42;;;;;;;24.30;51.94;100939.47;5054781;28;20021;-58
2021/06/17 07:29:21;;;;;;;5.72;3.90;;;;;;;24.32;51.71;100940.13;5053711;28;20125;-58
2021/06/17 07:31:47;;;;;;;5.15;3.55;;;;;;;24.32;52.15;100949.97;5054640;28;20037;-58
2021/06/17 07:34:12;;;;;;;6.18;3.88;;;;;;;24.30;52.20;100941.31;5054290;28;20021;-58
2021/06/17 07:36:39;;;;;;;7.32;3.50;;;;;;;24.29;51.91;100944.97;5053940;28;20457;-60
2021/06/17 07:39:06;;;;;;;6.25;3.40;;;;;;;24.31;52.16;100937.63;5054427;28;20445;-57
2021/06/17 07:41:32;;;;;;;5.15;3.75;;;;;;;24.33;52.34;100935.66;5054493;28;20029;-57
2021/06/17 07:43:58;;;;;;;5.70;3.70;;;;;;;24.33;52.20;100930.34;5053672;28;20071;-57
2021/06/17 07:46:23;;;;;;;6.05;3.30;;;;;;;24.34;52.47;100934.66;5054215;28;20021;-58
2021/06/17 07:48:49;;;;;;;6.50;3.90;;;;;;;24.33;52.32;100928.50;5054184;28;20025;-58
2021/06/17 07:51:15;;;;;;;6.10;3.63;;;;;;;24.34;52.30;100924.00;5053422;28;20033;-58
2021/06/17 07:53:40;;;;;;;8.68;3.45;;;;;;;24.34;52.15;100924.84;5054438;28;20028;-58
2021/06/17 07:56:06;;;;;;;5.95;3.20;;;;;;;24.34;52.28;100916.84;5053761;28;20037;-57
2021/06/17 07:58:31;;;;;;;6.30;3.78;;;;;;;24.35;52.07;100918.50;5053367;28;20051;-58
2021/06/17 08:00:57;;;;;;;5.57;3.40;;;;;;;24.35;52.30;100909.69;5054167;28;20029;-58
2021/06/17 08:03:22;;;;;;;6.38;3.47;;;;;;;24.35;52.01;100905.19;5053716;28;20393;-56
2021/06/17 08:05:47;;;;;;;6.47;3.17;;;;;;;24.37;52.37;100895.22;5054270;28;20078;-59
2021/06/17 08:08:16;;;;;;;5.68;3.28;;;;;;;24.39;52.14;100893.22;5054393;28;20292;-58
2021/06/17 08:10:42;;;;;;;7.43;3.78;;;;;;;24.41;52.41;100901.03;5054292;28;20028;-57
2021/06/17 08:13:07;;;;;;;5.18;3.22;;;;;;;24.43;52.34;100891.06;5053085;28;20025;-58
2021/06/17 08:15:32;;;;;;;5.80;3.13;;;;;;;24.43;52.46;100891.91;5055065;28;20025;-57
2021/06/17 08:17:58;;;;;;;6.03;3.25;;;;;;;24.47;52.77;100895.06;5054222;28;20100;-59
2021/06/17 08:20:24;;;;;;;5.65;3.10;;;;;;;24.50;52.42;100883.22;5054198;28;20418;-58
2021/06/17 08:22:49;;;;;;;5.88;3.15;;;;;;;24.51;52.78;100875.06;5054943;28;20021;-58
2021/06/17 08:25:15;;;;;;;5.85;3.20;;;;;;;24.52;52.55;100876.75;5053214;28;20036;-58
2021/06/17 08:27:41;;;;;;;4.85;3.15;;;;;;;24.52;52.22;100870.59;5053935;28;20049;-57
2021/06/17 08:30:13;;;;;;;6.90;2.88;;;;;;;24.52;52.29;100873.25;5053436;28;20390;-58
2021/06/17 08:32:39;;;;;;;5.70;3.08;;;;;;;24.54;52.21;100863.25;5052964;28;20357;-58
2021/06/17 08:35:05;;;;;;;8.13;3.50;;;;;;;24.56;52.23;100855.91;5053334;28;20108;-57
2021/06/17 08:37:31;;;;;;;7.05;3.40;;;;;;;24.56;51.96;100853.25;5053836;28;20040;-59
2021/06/17 08:39:58;;;;;;;4.30;2.90;;;;;;;24.56;52.23;100847.94;5052816;28;20409;-59
2021/06/17 08:42:28;;;;;;;4.70;2.70;;;;;;;24.56;52.18;100856.81;5053111;28;20048;-58
2021/06/17 08:44:55;;;;;;;4.88;3.05;;;;;;;24.56;52.33;100847.94;5035285;28;20020;-58
2021/06/17 08:47:24;;;;;;;4.72;2.90;;;;;;;24.55;51.97;100847.09;5052621;28;20434;-59
2021/06/17 08:49:52;;;;;;;8.00;3.03;;;;;;;24.56;52.27;100840.81;5053565;28;20086;-58
2021/06/17 08:52:21;;;;;;;5.85;3.22;;;;;;;24.54;52.68;100836.63;5053282;28;20067;-57
2021/06/17 08:54:48;;;;;;;8.23;3.28;;;;;;;24.53;52.65;100835.78;5052969;28;20027;-57
2021/06/17 08:57:14;;;;;;;7.00;3.03;;;;;;;24.51;52.29;100829.78;5052958;28;20028;-56
2021/06/17 08:59:41;;;;;;;5.90;2.97;;;;;;;24.50;52.63;100829.94;5053217;28;20029;-57
2021/06/17 09:02:11;;;;;;;7.25;3.30;;;;;;;24.49;52.47;100836.28;5052486;28;20032;-57
2021/06/17 09:04:38;;;;;;;5.85;2.90;;;;;;;24.48;52.69;100851.44;5053226;28;20036;-57
2021/06/17 09:07:08;;;;;;;7.15;2.80;;;;;;;24.47;52.61;100857.78;5052959;28;20029;-57
2021/06/17 09:09:39;;;;;;;5.82;2.63;;;;;;;24.46;53.00;100853.44;5053260;28;20033;-57
2021/06/17 09:12:05;;;;;;;6.72;3.08;;;;;;;24.44;52.79;100850.09;5052955;28;20357;-59
2021/06/17 09:14:34;;;;;;;6.38;3.10;;;;;;;24.44;52.70;100844.78;5052641;28;20029;-58
2021/06/17 09:17:08;;;;;;;4.95;3.10;;;;;;;24.43;52.51;100843.97;5052934;28;20041;-57
2021/06/17 09:19:53;;;;;;;5.82;3.05;;;;;;;24.42;52.59;100846.78;5052902;28;20491;-57
2021/06/17 09:22:22;;;;;;;5.07;2.92;;;;;;;24.40;52.96;100851.44;5051386;28;20045;-58
2021/06/17 09:24:49;;;;;;;4.47;3.00;;;;;;;24.40;52.79;100851.44;5051986;28;20025;-57
2021/06/17 09:27:25;;;;;;;4.63;3.10;;;;;;;24.39;52.54;100857.78;5052558;28;20053;-57
2021/06/17 09:29:53;;;;;;;7.20;2.90;;;;;;;24.39;53.02;100860.44;5052311;28;20020;-58
2021/06/17 09:32:23;;;;;;;7.75;2.60;;;;;;;24.38;53.03;100864.91;5052603;28;20017;-59
2021/06/17 09:34:49;;;;;;;5.63;3.03;;;;;;;24.38;53.09;100864.09;5050176;28;20037;-60
2021/06/17 09:37:35;;;;;;;5.75;3.10;;;;;;;24.37;52.71;100865.94;5050950;28;20098;-58
2021/06/17 09:40:22;;;;;;;5.18;2.90;;;;;;;24.37;52.69;100870.41;5052737;28;20021;-59
2021/06/17 09:42:49;;;;;;;6.22;3.20;;;;;;;24.35;52.94;100870.56;5051886;28;20048;-59
2021/06/17 09:45:23;;;;;;;6.00;2.90;;;;;;;24.36;52.90;100871.41;5051799;28;20491;-57
2021/06/17 09:47:49;;;;;;;5.93;2.83;;;;;;;24.35;52.99;100880.41;5052295;28;20033;-57
2021/06/17 09:50:23;;;;;;;6.55;2.88;;;;;;;24.36;52.51;100879.41;5051232;28;20031;-57
2021/06/17 09:52:48;;;;;;;5.28;2.90;;;;;;;24.35;52.62;100883.06;5052132;28;20025;-58
2021/06/17 09:55:37;;;;;;;5.60;3.00;;;;;;;24.34;52.51;100886.72;5051780;28;20040;-57
2021/06/17 09:58:04;;;;;;;5.95;3.10;;;;;;;24.35;52.89;100899.03;5050770;28;20143;-58
2021/06/17 10:00:32;;;;;;;5.53;3.03;;;;;;;24.35;52.62;100899.03;5051839;28;20494;-58
2021/06/17 10:03:14;;;;;;;5.57;2.90;;;;;;;24.33;52.99;100896.53;5052059;28;20029;-57
2021/06/17 10:05:39;;;;;;;5.53;3.28;;;;;;;24.34;52.89;100897.38;5051227;28;20112;-58
2021/06/17 10:08:05;;;;;;;4.40;2.90;;;;;;;24.34;52.71;100910.69;5051562;28;20048;-58
2021/06/17 10:10:35;;;;;;;4.75;2.83;;;;;;;24.34;52.85;100926.66;5050975;28;20546;-58
2021/06/17 10:13:03;;;;;;;5.95;2.95;;;;;;;24.33;52.87;100919.69;5052085;28;20036;-58
2021/06/17 10:15:29;;;;;;;5.63;3.10;;;;;;;24.34;53.06;100908.00;5051455;28;20472;-57
2021/06/17 10:17:54;;;;;;;4.03;2.65;;;;;;;24.34;52.86;100910.69;5051007;28;20060;-56
2021/06/17 10:20:20;;;;;;;4.45;2.90;;;;;;;24.35;52.82;100925.66;5051410;28;20044;-58
2021/06/17 10:22:51;;;;;;;5.93;3.00;;;;;;;24.35;52.64;100925.66;5051563;28;20025;-57
2021/06/17 10:25:40;;;;;;;5.20;2.78;;;;;;;24.35;52.71;100921.16;5050632;28;20032;-58
2021/06/17 10:28:08;;;;;;;4.85;2.90;;;;;;;24.36;52.84;100924.69;5040519;28;20087;-57
2021/06/17 10:30:46;;;;;;;6.85;2.90;;;;;;;24.35;53.01;100912.34;5051644;28;20092;-61
2021/06/17 10:33:36;;;;;;;5.18;2.75;;;;;;;24.36;52.74;100922.03;5050516;28;20103;-58
2021/06/17 10:36:16;;;;;;;8.65;2.70;;;;;;;24.36;52.71;100930.84;5054958;28;20036;-58
2021/06/17 10:39:12;;;;;;;5.68;2.70;;;;;;;24.37;52.72;100924.53;5055048;28;20025;-58
2021/06/17 10:41:46;;;;;;;5.78;2.70;;;;;;;24.39;53.02;100935.84;5055552;28;20103;-57
2021/06/17 10:44:50;;;;;;;5.45;2.92;;;;;;;24.41;53.39;100941.81;5055229;28;20028;-58
2021/06/17 10:47:47;;;;;;;5.75;2.70;;;;;;;24.43;53.74;100931.84;5052149;28;20090;-58
2021/06/17 10:50:40;;;;;;;5.45;2.95;;;;;;;24.47;53.63;100934.16;5055156;28;20506;-58
2021/06/17 10:53:39;;;;;;;6.18;3.08;;;;;;;24.48;53.77;100934.00;5054201;28;20082;-60
2021/06/17 10:56:04;;;;;;;4.97;2.67;;;;;;;24.49;53.97;100927.69;5054989;28;20130;-58
2021/06/17 10:58:42;;;;;;;5.78;3.10;;;;;;;24.51;54.24;100931.00;5055220;28;20052;-59
2021/06/17 11:01:26;;;;;;;8.88;3.30;;;;;;;24.53;54.00;100922.84;5054038;28;20028;-59
2021/06/17 11:04:21;;;;;;;6.15;2.75;;;;;;;24.53;54.26;100925.53;5055306;28;20112;-59
2021/06/17 11:06:52;;;;;;;7.32;2.80;;;;;;;24.53;54.14;100928.19;5054353;28;20126;-58
2021/06/17 11:09:36;;;;;;;5.53;3.00;;;;;;;24.54;54.42;100928.03;5054877;28;20028;-59
2021/06/17 11:12:24;;;;;;;11.32;3.10;;;;;;;24.55;54.48;100937.69;5054781;28;20078;-57
2021/06/17 11:14:57;;;;;;;11.50;3.17;;;;;;;24.56;54.25;100938.50;5054070;28;20467;-58
2021/06/17 11:17:33;;;;;;;4.70;2.80;;;;;;;24.57;54.34;100935.72;5054588;28;20071;-59
2021/06/17 11:20:06;;;;;;;8.02;2.97;;;;;;;24.58;54.48;100940.06;5054856;28;20404;-59
2021/06/17 11:22:39;;;;;;;6.22;2.90;;;;;;;24.57;54.06;100937.56;5054367;28;20104;-59
2021/06/17 11:25:17;;;;;;;5.20;2.72;;;;;;;24.57;54.25;100938.38;5054619;28;20033;-59
2021/06/17 11:28:00;;;;;;;6.68;2.85;;;;;;;24.59;54.17;100946.22;5054767;28;20033;-59
2021/06/17 11:30:48;;;;;;;5.60;3.05;;;;;;;24.58;54.00;100955.22;5054746;28;20032;-59
2021/06/17 11:33:16;;;;;;;6.72;2.70;;;;;;;24.58;54.05;100950.72;5042114;28;20048;-58
2021/06/17 11:35:44;;;;;;;6.45;2.75;;;;;;;24.58;53.73;100957.88;5053864;28;20108;-58
2021/06/17 11:38:09;;;;;;;6.65;3.00;;;;;;;24.59;53.52;100965.72;5054463;28;20025;-58
2021/06/17 11:40:34;;;;;;;4.95;2.58;;;;;;;24.57;53.42;100958.88;5054663;28;20017;-58